Time;durP1;ratioP1;P1;durP2;ratioP2;P2;SDS_P1;SDS_P2;PMS_P1;PMS_P2;Temp;Humidity;BMP_temperature;BMP_pressure;BME280_temperature;BME280_humidity;BME280_pressure;Samples;Min_cycle;Max_cycle;Signal;HPM_P1;HPM_P2
2023/05/03 00:01:40;;;;;;;10.90;5.78;;;6.80;99.90;;;;;;5050648;28;20088;-60
2023/05/03 00:04:06;;;;;;;10.50;4.35;;;6.90;99.90;;;;;;5050044;28;20126;-60
2023/05/03 00:06:31;;;;;;;10.75;4.90;;;6.90;99.90;;;;;;5050161;28;20179;-60
2023/05/03 00:08:57;;;;;;;9.75;4.93;;;6.90;99.90;;;;;;5050609;28;20120;-60
2023/05/03 00:11:23;;;;;;;10.48;5.05;;;6.90;99.90;;;;;;5032654;28;20433;-60
2023/05/03 00:13:48;;;;;;;8.77;5.05;;;6.90;99.90;;;;;;5050748;28;20401;-60
2023/05/03 00:16:14;;;;;;;8.40;4.93;;;6.90;99.90;;;;;;5050622;28;20120;-60
2023/05/03 00:18:40;;;;;;;12.20;5.47;;;6.90;99.90;;;;;;5050823;28;20115;-60
2023/05/03 00:21:05;;;;;;;11.45;6.60;;;6.90;99.90;;;;;;5050701;28;20520;-60
2023/05/03 00:23:31;;;;;;;12.43;7.13;;;6.90;99.90;;;;;;5049894;28;20448;-60
2023/05/03 00:25:58;;;;;;;13.02;7.72;;;6.90;99.90;;;;;;5051076;28;20032;-60
2023/05/03 00:28:24;;;;;;;10.43;5.50;;;6.90;99.90;;;;;;5051035;28;20052;-60
2023/05/03 00:30:51;;;;;;;9.00;5.10;;;7.00;99.90;;;;;;5050609;28;20037;-60
2023/05/03 00:33:17;;;;;;;7.30;3.95;;;6.90;99.90;;;;;;5049459;28;20045;-60
2023/05/03 00:35:43;;;;;;;7.70;4.85;;;7.00;99.90;;;;;;5050302;28;20040;-60
2023/05/03 00:38:09;;;;;;;8.27;4.97;;;7.00;99.90;;;;;;5051048;28;20040;-60
2023/05/03 00:40:34;;;;;;;10.82;4.88;;;7.10;99.90;;;;;;5050789;28;20067;-60
2023/05/03 00:43:00;;;;;;;7.75;4.60;;;7.10;99.90;;;;;;5051598;28;20438;-60
2023/05/03 00:45:28;;;;;;;8.35;4.07;;;7.10;99.90;;;;;;5049341;28;20040;-60
2023/05/03 00:47:53;;;;;;;8.00;3.83;;;7.10;99.90;;;;;;5054811;28;20060;-60
2023/05/03 00:50:19;;;;;;;10.27;3.88;;;7.10;99.90;;;;;;5055222;28;20473;-60
2023/05/03 00:52:45;;;;;;;9.05;4.40;;;7.10;99.90;;;;;;5053360;28;20059;-60
2023/05/03 00:55:11;;;;;;;7.40;3.75;;;7.20;99.90;;;;;;5071097;28;20091;-60
2023/05/03 00:57:37;;;;;;;6.82;3.33;;;7.20;99.90;;;;;;5053572;28;20410;-60
2023/05/03 01:00:03;;;;;;;6.60;3.28;;;7.20;99.90;;;;;;5054516;28;20447;-60
2023/05/03 01:02:29;;;;;;;6.85;3.42;;;7.20;99.90;;;;;;5070035;28;20044;-60
2023/05/03 01:04:55;;;;;;;8.35;4.10;;;7.20;99.90;;;;;;5055381;28;20044;-60
2023/05/03 01:07:44;;;;;;;11.35;4.22;;;7.20;99.90;;;;;;5053777;28;20048;-60
2023/05/03 01:10:30;;;;;;;6.28;3.60;;;7.20;99.90;;;;;;5053516;28;20067;-60
2023/05/03 01:13:27;;;;;;;6.75;3.50;;;7.20;99.90;;;;;;5053935;28;20044;-60
2023/05/03 01:16:10;;;;;;;8.43;3.95;;;7.20;99.90;;;;;;5053683;28;20045;-60
2023/05/03 01:18:43;;;;;;;6.65;4.72;;;7.20;99.90;;;;;;5053343;28;20167;-60
2023/05/03 01:21:10;;;;;;;5.55;2.90;;;7.20;99.90;;;;;;5036293;28;20045;-60
2023/05/03 01:23:49;;;;;;;5.78;2.78;;;7.30;99.90;;;;;;5054361;28;20052;-60
2023/05/03 01:26:19;;;;;;;7.07;3.50;;;7.30;99.90;;;;;;5037127;28;20037;-60
2023/05/03 01:28:45;;;;;;;7.82;3.10;;;7.30;99.90;;;;;;5053633;28;20119;-60
2023/05/03 01:31:14;;;;;;;10.85;3.70;;;7.30;99.90;;;;;;5054618;28;20079;-60
2023/05/03 01:33:47;;;;;;;6.72;3.03;;;7.30;99.90;;;;;;5053152;28;20045;-60
2023/05/03 01:36:25;;;;;;;5.68;2.85;;;7.30;99.90;;;;;;5053952;28;20041;-60
2023/05/03 01:38:52;;;;;;;5.88;3.33;;;7.30;99.90;;;;;;5054291;28;20045;-60
2023/05/03 01:41:20;;;;;;;8.35;3.22;;;7.30;99.90;;;;;;5052987;28;20045;-60
2023/05/03 01:43:47;;;;;;;7.25;3.30;;;7.30;99.90;;;;;;5054351;28;20107;-60
2023/05/03 01:46:13;;;;;;;6.18;3.10;;;7.30;99.90;;;;;;5054411;28;20033;-60
2023/05/03 01:48:39;;;;;;;7.57;2.80;;;7.30;99.90;;;;;;5051783;28;20450;-60
2023/05/03 01:51:04;;;;;;;4.82;2.53;;;7.30;99.90;;;;;;5054472;28;20094;-60
2023/05/03 01:53:30;;;;;;;5.60;2.95;;;7.30;99.90;;;;;;5052253;28;20187;-60
2023/05/03 01:55:56;;;;;;;5.25;2.75;;;7.30;99.90;;;;;;5053415;28;20041;-60
2023/05/03 01:58:21;;;;;;;6.32;3.28;;;7.30;99.90;;;;;;5051631;28;20044;-60
2023/05/03 02:00:48;;;;;;;5.10;2.67;;;7.20;99.90;;;;;;5052840;28;20041;-60
2023/05/03 02:03:13;;;;;;;6.30;3.58;;;7.20;99.90;;;;;;5053435;28;20036;-60
2023/05/03 02:05:40;;;;;;;7.82;3.30;;;7.20;99.90;;;;;;5052622;28;20052;-60
2023/05/03 02:08:05;;;;;;;5.47;3.20;;;7.30;99.90;;;;;;5052798;28;20108;-60
2023/05/03 02:10:31;;;;;;;7.03;3.10;;;7.30;99.90;;;;;;5051314;28;20140;-60
2023/05/03 02:12:57;;;;;;;8.63;3.17;;;7.30;99.90;;;;;;5052682;28;20053;-60
2023/05/03 02:15:23;;;;;;;7.18;3.50;;;7.20;99.90;;;;;;5052186;28;20073;-60
2023/05/03 02:17:49;;;;;;;5.10;2.70;;;7.30;99.90;;;;;;5051916;28;20041;-60
2023/05/03 02:20:15;;;;;;;5.65;3.10;;;7.20;99.90;;;;;;5052142;28;20045;-60
2023/05/03 02:22:41;;;;;;;7.85;3.03;;;7.20;99.90;;;;;;5053353;28;20033;-60
2023/05/03 02:25:10;;;;;;;6.82;2.92;;;7.20;99.90;;;;;;5051737;28;20037;-60
2023/05/03 02:27:35;;;;;;;5.20;2.65;;;7.20;99.90;;;;;;5051752;28;20060;-60
2023/05/03 02:30:01;;;;;;;8.18;3.22;;;7.20;99.90;;;;;;5052595;28;20037;-60
2023/05/03 02:32:27;;;;;;;4.78;2.35;;;7.20;99.90;;;;;;5051141;28;20409;-60
2023/05/03 02:34:53;;;;;;;7.25;3.50;;;7.20;99.90;;;;;;5052301;28;20041;-60
2023/05/03 02:37:18;;;;;;;6.38;2.35;;;7.20;99.90;;;;;;5035231;28;20037;-60
2023/05/03 02:39:44;;;;;;;5.90;2.40;;;7.20;99.90;;;;;;5051111;28;20466;-60
2023/05/03 02:42:09;;;;;;;5.22;2.22;;;7.10;99.90;;;;;;5052221;28;20116;-60
2023/05/03 02:44:35;;;;;;;6.28;2.45;;;7.10;99.90;;;;;;5052853;28;20052;-60
2023/05/03 02:47:01;;;;;;;6.35;2.70;;;7.20;99.90;;;;;;5052937;28;20040;-60
2023/05/03 02:49:27;;;;;;;5.10;2.60;;;7.20;99.90;;;;;;5051417;28;20041;-60
2023/05/03 02:51:52;;;;;;;7.20;2.90;;;7.20;99.90;;;;;;5052202;28;20037;-60
2023/05/03 02:54:18;;;;;;;7.47;2.83;;;7.20;99.90;;;;;;5052978;28;20122;-60
2023/05/03 02:56:44;;;;;;;5.18;2.63;;;7.20;99.90;;;;;;5051667;28;20052;-60
2023/05/03 02:59:10;;;;;;;5.45;2.80;;;7.20;99.90;;;;;;5050864;28;20132;-60
2023/05/03 03:01:36;;;;;;;6.90;2.60;;;7.20;99.90;;;;;;5067828;28;20053;-60
2023/05/03 03:04:02;;;;;;;7.45;2.80;;;7.20;99.90;;;;;;5053011;28;20504;-60
2023/05/03 03:06:27;;;;;;;6.20;2.80;;;7.20;99.90;;;;;;5051480;28;20551;-60
2023/05/03 03:08:53;;;;;;;6.57;2.50;;;7.10;99.90;;;;;;5035125;28;20120;-60
2023/05/03 03:11:19;;;;;;;8.50;2.50;;;7.10;99.90;;;;;;5050758;28;20063;-60
2023/05/03 03:13:46;;;;;;;5.72;2.65;;;7.10;99.90;;;;;;5052147;28;20045;-60
2023/05/03 03:16:12;;;;;;;5.15;2.60;;;7.00;99.90;;;;;;5051758;28;20037;-60
2023/05/03 03:18:38;;;;;;;6.57;2.60;;;7.00;99.90;;;;;;5052155;28;20482;-60
2023/05/03 03:21:04;;;;;;;7.82;2.92;;;7.00;99.90;;;;;;5050319;28;20090;-60
2023/05/03 03:23:30;;;;;;;5.75;2.67;;;6.90;99.90;;;;;;5050910;28;20036;-60
2023/05/03 03:25:55;;;;;;;5.53;2.22;;;6.90;99.90;;;;;;5051407;28;20044;-60
2023/05/03 03:28:21;;;;;;;6.10;2.10;;;6.90;99.90;;;;;;5050034;28;20045;-60
2023/05/03 03:30:47;;;;;;;6.30;2.53;;;6.80;99.90;;;;;;5050974;28;20044;-60
2023/05/03 03:33:12;;;;;;;7.28;2.22;;;6.80;99.90;;;;;;5051543;28;20041;-60
2023/05/03 03:35:38;;;;;;;4.97;2.58;;;6.80;99.90;;;;;;5050962;28;20732;-60
2023/05/03 03:38:05;;;;;;;6.40;2.00;;;6.70;99.90;;;;;;5051710;28;20131;-60
2023/05/03 03:40:31;;;;;;;5.47;2.33;;;6.60;99.90;;;;;;5051615;28;20045;-60
2023/05/03 03:42:56;;;;;;;6.75;2.33;;;6.60;99.90;;;;;;5050634;28;20037;-60
2023/05/03 03:45:22;;;;;;;6.78;2.38;;;6.40;99.90;;;;;;5050340;28;20401;-60
2023/05/03 03:47:48;;;;;;;6.70;2.47;;;6.40;99.90;;;;;;5052319;28;20094;-60
2023/05/03 03:50:14;;;;;;;5.70;2.13;;;6.40;99.90;;;;;;5050715;28;20044;-60
2023/05/03 03:52:39;;;;;;;6.32;2.75;;;6.40;99.90;;;;;;5051937;28;20052;-60
2023/05/03 03:55:06;;;;;;;6.20;2.60;;;6.30;99.90;;;;;;5050228;28;20041;-60
2023/05/03 03:57:32;;;;;;;6.55;2.97;;;6.30;99.90;;;;;;5050708;28;20046;-60
2023/05/03 03:59:58;;;;;;;5.70;2.92;;;6.30;99.90;;;;;;5050760;28;20474;-60
2023/05/03 04:02:24;;;;;;;5.32;3.10;;;6.30;99.90;;;;;;5050615;28;20139;-60
2023/05/03 04:04:50;;;;;;;5.75;3.10;;;6.30;99.90;;;;;;5051956;28;20063;-60
2023/05/03 04:07:16;;;;;;;5.30;2.40;;;6.30;99.90;;;;;;5046747;28;20028;-60
2023/05/03 04:09:42;;;;;;;4.53;2.75;;;6.30;99.90;;;;;;5050924;28;20039;-60
2023/05/03 04:12:08;;;;;;;5.45;2.45;;;6.30;99.90;;;;;;5047458;28;20107;-60
2023/05/03 04:14:33;;;;;;;5.22;2.65;;;6.30;99.90;;;;;;5031519;28;20053;-60
2023/05/03 04:17:00;;;;;;;5.07;2.35;;;6.40;99.90;;;;;;5031374;28;20406;-60
2023/05/03 04:19:26;;;;;;;6.03;2.53;;;6.40;99.90;;;;;;5048496;28;20056;-60
2023/05/03 04:21:52;;;;;;;5.80;2.80;;;6.40;99.90;;;;;;5052073;28;20480;-60
2023/05/03 04:24:17;;;;;;;7.10;3.05;;;6.40;99.90;;;;;;5054921;28;20041;-60
2023/05/03 04:26:43;;;;;;;6.25;2.63;;;6.50;99.90;;;;;;5055687;28;20045;-60
2023/05/03 04:29:10;;;;;;;4.88;1.98;;;6.50;99.90;;;;;;5054567;28;20045;-60
2023/05/03 04:31:37;;;;;;;5.07;2.17;;;6.50;99.90;;;;;;5069947;28;20579;-60
2023/05/03 04:34:02;;;;;;;5.88;2.53;;;6.60;99.90;;;;;;5054680;28;20033;-60
2023/05/03 04:36:28;;;;;;;8.98;2.83;;;6.60;99.90;;;;;;5070247;28;20171;-60
2023/05/03 04:39:00;;;;;;;5.68;2.22;;;6.60;99.90;;;;;;5055006;28;20159;-60
2023/05/03 04:41:25;;;;;;;4.85;2.20;;;6.70;99.90;;;;;;5055338;28;20056;-60
2023/05/03 04:43:52;;;;;;;5.53;2.10;;;6.70;99.90;;;;;;5054401;28;20037;-60
2023/05/03 04:46:17;;;;;;;5.28;2.83;;;6.80;99.90;;;;;;5069925;28;20079;-60
2023/05/03 04:48:44;;;;;;;10.48;2.65;;;6.80;99.90;;;;;;5053693;28;20076;-60
2023/05/03 04:51:10;;;;;;;6.82;2.35;;;6.90;99.90;;;;;;5054323;28;20545;-60
2023/05/03 04:53:36;;;;;;;6.97;2.40;;;6.90;99.90;;;;;;5054380;28;20072;-60
2023/05/03 04:56:01;;;;;;;8.57;3.05;;;6.90;99.90;;;;;;5037666;28;20401;-60
2023/05/03 04:58:27;;;;;;;6.13;3.33;;;6.90;99.90;;;;;;5052874;28;20037;-60
2023/05/03 05:00:53;;;;;;;5.85;3.13;;;7.00;99.90;;;;;;5053956;28;20048;-60
2023/05/03 05:03:18;;;;;;;6.07;3.40;;;7.00;99.90;;;;;;5054711;28;20033;-60
2023/05/03 05:05:45;;;;;;;6.82;2.63;;;7.00;99.90;;;;;;5069676;28;20124;-60
2023/05/03 05:08:10;;;;;;;10.13;3.97;;;7.10;99.90;;;;;;5055376;28;20115;-60
2023/05/03 05:10:39;;;;;;;6.45;2.67;;;7.20;99.90;;;;;;5053249;28;20171;-60
2023/05/03 05:13:05;;;;;;;5.90;2.30;;;7.20;99.90;;;;;;5053429;28;20049;-60
2023/05/03 05:15:31;;;;;;;6.05;2.65;;;7.20;99.90;;;;;;5054397;28;20056;-60
2023/05/03 05:17:57;;;;;;;5.60;2.45;;;7.30;99.90;;;;;;5054126;28;20044;-60
2023/05/03 05:20:22;;;;;;;7.78;3.03;;;7.30;99.90;;;;;;5053722;28;20044;-60
2023/05/03 05:22:48;;;;;;;5.10;3.13;;;7.40;99.90;;;;;;5053952;28;20473;-60
2023/05/03 05:25:14;;;;;;;7.80;3.00;;;7.40;99.90;;;;;;5055083;28;20486;-60
2023/05/03 05:27:40;;;;;;;6.32;2.72;;;7.50;99.90;;;;;;5053714;28;20045;-60
2023/05/03 05:30:06;;;;;;;6.45;2.40;;;7.50;99.90;;;;;;5054819;28;20048;-60
2023/05/03 05:32:32;;;;;;;6.05;2.30;;;7.50;99.90;;;;;;5052136;28;20087;-60
2023/05/03 05:34:58;;;;;;;9.98;2.85;;;7.60;99.90;;;;;;5051989;28;20459;-60
2023/05/03 05:37:24;;;;;;;5.15;2.65;;;7.60;99.90;;;;;;5054112;28;20040;-60
2023/05/03 05:39:50;;;;;;;8.77;2.97;;;7.60;99.90;;;;;;5054833;28;20075;-60
2023/05/03 05:42:16;;;;;;;6.97;2.88;;;7.60;99.90;;;;;;5053454;28;20037;-60
2023/05/03 05:44:42;;;;;;;5.35;2.65;;;7.60;99.90;;;;;;5052537;28;20119;-60
2023/05/03 05:47:09;;;;;;;5.20;2.28;;;7.70;99.90;;;;;;5053308;28;20043;-60
2023/05/03 05:49:35;;;;;;;5.93;2.65;;;7.70;99.90;;;;;;5035210;28;20102;-60
2023/05/03 05:52:00;;;;;;;4.88;2.40;;;7.70;99.90;;;;;;5036626;28;20041;-60
2023/05/03 05:54:26;;;;;;;6.38;2.80;;;7.70;99.90;;;;;;5053526;28;20049;-60
2023/05/03 05:56:52;;;;;;;7.07;2.75;;;7.80;99.90;;;;;;5035808;28;20099;-60
2023/05/03 05:59:18;;;;;;;5.20;2.60;;;7.80;99.90;;;;;;5052496;28;20125;-60
2023/05/03 06:01:45;;;;;;;5.63;2.50;;;7.80;99.90;;;;;;5053187;28;20513;-60
2023/05/03 06:04:14;;;;;;;7.78;2.88;;;7.90;99.90;;;;;;5054135;28;20112;-60
2023/05/03 06:06:40;;;;;;;6.00;2.28;;;7.90;99.90;;;;;;5054165;28;20418;-60
2023/05/03 06:09:07;;;;;;;6.78;2.70;;;8.00;99.90;;;;;;5052053;28;20047;-60
2023/05/03 06:11:34;;;;;;;6.10;2.38;;;8.00;99.90;;;;;;5053169;28;20409;-60
2023/05/03 06:14:02;;;;;;;5.35;2.38;;;8.10;99.90;;;;;;5052160;28;20099;-61
2023/05/03 06:16:28;;;;;;;6.80;2.75;;;8.10;99.90;;;;;;5052170;28;20116;-60
2023/05/03 06:18:54;;;;;;;8.15;2.75;;;8.10;99.90;;;;;;5054161;28;20041;-60
2023/05/03 06:21:21;;;;;;;7.78;2.75;;;8.20;99.90;;;;;;5035393;28;20053;-61
2023/05/03 06:23:46;;;;;;;6.32;2.72;;;8.30;99.90;;;;;;5051999;28;20076;-60
2023/05/03 06:26:12;;;;;;;4.50;2.28;;;8.30;99.90;;;;;;5052504;28;20134;-60
2023/05/03 06:28:38;;;;;;;5.18;2.08;;;8.30;99.90;;;;;;5051645;28;20033;-60
2023/05/03 06:31:03;;;;;;;4.30;1.85;;;8.40;99.90;;;;;;5052000;28;20045;-60
2023/05/03 06:33:29;;;;;;;7.63;2.30;;;8.40;99.90;;;;;;5052000;28;20076;-60
2023/05/03 06:35:55;;;;;;;5.85;2.03;;;8.50;99.90;;;;;;5052809;28;20086;-68
2023/05/03 06:38:21;;;;;;;7.93;3.03;;;8.50;99.90;;;;;;5050833;28;20091;-68
2023/05/03 06:40:47;;;;;;;11.43;3.03;;;8.60;99.90;;;;;;5052392;28;20045;-68
2023/05/03 06:43:13;;;;;;;4.82;2.17;;;8.60;99.90;;;;;;5052118;28;20075;-68
2023/05/03 06:45:42;;;;;;;6.40;2.13;;;8.60;99.90;;;;;;5049953;28;20064;-68
2023/05/03 06:48:08;;;;;;;7.95;2.28;;;8.60;99.90;;;;;;5052205;28;20072;-68
2023/05/03 06:50:34;;;;;;;5.65;2.50;;;8.60;99.90;;;;;;5035289;28;20067;-68
2023/05/03 06:53:00;;;;;;;8.13;2.85;;;8.70;99.90;;;;;;5051134;28;20051;-68
2023/05/03 06:55:26;;;;;;;7.32;2.22;;;8.70;99.90;;;;;;5052635;28;20076;-68
2023/05/03 06:57:53;;;;;;;4.00;1.92;;;8.70;99.90;;;;;;5034623;28;20048;-68
2023/05/03 07:00:21;;;;;;;6.22;1.90;;;8.70;99.90;;;;;;5068004;28;20040;-68
2023/05/03 07:02:47;;;;;;;5.55;2.22;;;8.70;99.90;;;;;;5049289;28;20041;-68
2023/05/03 07:05:13;;;;;;;6.10;1.80;;;8.70;99.90;;;;;;5044119;28;20439;-68
2023/05/03 07:07:38;;;;;;;4.47;1.77;;;8.70;99.90;;;;;;5039392;28;20037;-68
2023/05/03 07:10:05;;;;;;;5.85;2.15;;;8.80;99.90;;;;;;5058175;28;20460;-68
2023/05/03 07:12:31;;;;;;;4.82;1.98;;;8.80;99.90;;;;;;5065686;28;20076;-68
2023/05/03 07:14:57;;;;;;;4.25;1.90;;;8.80;99.90;;;;;;5051656;28;20087;-68
2023/05/03 07:17:23;;;;;;;4.68;2.13;;;8.90;99.90;;;;;;5050781;28;20037;-68
2023/05/03 07:19:50;;;;;;;6.07;2.05;;;8.90;99.90;;;;;;5034049;28;20131;-68
2023/05/03 07:22:16;;;;;;;5.55;2.33;;;8.90;99.90;;;;;;5052336;28;20041;-68
2023/05/03 07:24:42;;;;;;;6.35;2.45;;;9.00;99.90;;;;;;5046418;28;20037;-68
2023/05/03 07:27:08;;;;;;;8.60;3.47;;;9.00;99.90;;;;;;5031464;28;20036;-68
2023/05/03 07:29:34;;;;;;;7.25;2.75;;;9.00;99.90;;;;;;5031478;28;20045;-68
2023/05/03 07:31:59;;;;;;;6.53;1.70;;;9.10;99.90;;;;;;5049684;28;20056;-68
2023/05/03 07:34:25;;;;;;;2.88;1.48;;;9.10;99.90;;;;;;5047687;28;20048;-68
2023/05/03 07:36:51;;;;;;;5.25;1.83;;;9.10;99.90;;;;;;5048245;28;20544;-68
2023/05/03 07:39:17;;;;;;;5.57;1.80;;;9.20;99.90;;;;;;5048344;28;20048;-67
2023/05/03 07:41:43;;;;;;;4.80;1.77;;;9.20;99.90;;;;;;5047337;28;20040;-68
2023/05/03 07:44:08;;;;;;;8.35;4.22;;;9.20;99.90;;;;;;5048224;28;20045;-68
2023/05/03 07:46:34;;;;;;;3.88;1.70;;;9.20;99.90;;;;;;5047920;28;20389;-68
2023/05/03 07:49:01;;;;;;;5.22;1.77;;;9.30;99.90;;;;;;5048516;28;20090;-68
2023/05/03 07:51:27;;;;;;;6.03;2.08;;;9.30;99.90;;;;;;5049000;28;20468;-67
2023/05/03 07:53:55;;;;;;;5.30;2.22;;;9.30;99.90;;;;;;5048383;28;20134;-67
2023/05/03 07:56:21;;;;;;;4.15;1.85;;;9.30;99.90;;;;;;5047564;28;20056;-68
2023/05/03 07:58:47;;;;;;;5.20;2.00;;;9.30;99.90;;;;;;5049149;28;20613;-68
2023/05/03 08:01:12;;;;;;;6.32;2.17;;;9.40;99.90;;;;;;5048846;28;20076;-68
2023/05/03 08:03:38;;;;;;;6.68;2.05;;;9.40;99.90;;;;;;5048070;28;20120;-68
2023/05/03 08:06:04;;;;;;;4.75;1.65;;;9.40;99.90;;;;;;5048088;28;20509;-68
2023/05/03 08:08:30;;;;;;;4.45;1.85;;;9.40;99.90;;;;;;5045244;28;20048;-68
2023/05/03 08:10:56;;;;;;;4.47;2.03;;;9.30;99.90;;;;;;5046140;28;20132;-68
2023/05/03 08:13:22;;;;;;;4.03;2.00;;;9.30;99.90;;;;;;5040950;28;20158;-68
2023/05/03 08:15:49;;;;;;;7.75;2.50;;;9.30;99.90;;;;;;5046135;28;20124;-68
2023/05/03 08:18:15;;;;;;;6.72;2.03;;;9.30;99.90;;;;;;5047088;28;20040;-68
2023/05/03 08:20:41;;;;;;;6.07;2.10;;;9.40;99.90;;;;;;5029780;28;20111;-68
2023/05/03 08:23:06;;;;;;;7.15;2.53;;;9.40;99.90;;;;;;5045797;28;20039;-68
2023/05/03 08:25:33;;;;;;;6.00;1.98;;;9.50;99.90;;;;;;5046069;28;20045;-68
2023/05/03 08:27:58;;;;;;;4.57;1.90;;;9.50;99.90;;;;;;5023242;28;20038;-68
2023/05/03 08:30:25;;;;;;;4.85;1.90;;;9.50;99.90;;;;;;5028184;28;20075;-68
2023/05/03 08:32:51;;;;;;;7.32;2.40;;;9.50;99.90;;;;;;5046792;28;20102;-68
2023/05/03 08:35:17;;;;;;;7.05;2.30;;;9.50;99.90;;;;;;5048322;28;20041;-68
2023/05/03 08:41:29;;;;;;;11.98;4.75;;;9.60;99.90;;;;;;5038479;28;20060;-68
2023/05/03 08:43:56;;;;;;;6.18;3.88;;;9.60;99.90;;;;;;5045833;28;20041;-68
2023/05/03 08:46:24;;;;;;;7.90;2.80;;;9.60;99.90;;;;;;5047109;28;20047;-68
2023/05/03 08:48:51;;;;;;;5.57;2.22;;;9.60;99.90;;;;;;5030657;28;20041;-68
2023/05/03 08:51:18;;;;;;;10.52;6.22;;;9.70;99.90;;;;;;5030474;28;20048;-68
2023/05/03 08:53:44;;;;;;;8.45;3.40;;;9.70;99.90;;;;;;5031052;28;20099;-68
2023/05/03 08:56:12;;;;;;;4.28;2.03;;;9.70;99.90;;;;;;5047893;28;20142;-68
2023/05/03 08:58:38;;;;;;;5.63;1.75;;;9.80;99.90;;;;;;5045930;28;20040;-68
2023/05/03 09:01:05;;;;;;;3.53;1.50;;;9.70;99.90;;;;;;5047091;28;20033;-68
2023/05/03 09:03:32;;;;;;;9.80;5.82;;;9.70;99.90;;;;;;5046809;28;20041;-60
2023/05/03 09:06:00;;;;;;;5.35;2.00;;;9.80;99.90;;;;;;5046399;28;20041;-61
2023/05/03 09:08:27;;;;;;;5.50;2.85;;;9.70;99.90;;;;;;5049574;28;20044;-60
2023/05/03 09:10:53;;;;;;;6.18;2.00;;;9.70;99.90;;;;;;5050905;28;20161;-60
2023/05/03 09:13:19;;;;;;;4.05;1.83;;;9.70;99.90;;;;;;5048016;28;20501;-60
2023/05/03 09:15:54;;;;;;;6.72;2.10;;;9.70;99.90;;;;;;5052294;28;20677;-60
2023/05/03 09:18:21;;;;;;;6.03;2.30;;;9.70;99.90;;;;;;5033363;28;20041;-60
2023/05/03 09:20:51;;;;;;;5.88;1.73;;;9.60;99.90;;;;;;5050358;28;20049;-60
2023/05/03 09:23:19;;;;;;;5.05;1.67;;;9.60;99.90;;;;;;5050131;28;20044;-60
2023/05/03 09:25:52;;;;;;;5.85;2.55;;;9.60;99.90;;;;;;5050223;28;20056;-60
2023/05/03 09:28:19;;;;;;;5.13;1.67;;;9.70;99.90;;;;;;5051752;28;20545;-60
2023/05/03 09:30:46;;;;;;;8.30;2.40;;;9.60;99.90;;;;;;5050677;28;20094;-60
2023/05/03 09:33:19;;;;;;;5.00;2.10;;;9.70;99.90;;;;;;5048731;28;20047;-59
2023/05/03 09:36:11;;;;;;;12.27;2.50;;;9.70;99.90;;;;;;5043914;28;20048;-61
2023/05/03 09:38:36;;;;;;;5.50;1.92;;;9.70;99.90;;;;;;5065312;28;20409;-61
2023/05/03 09:41:04;;;;;;;4.93;2.00;;;9.70;99.90;;;;;;5049425;28;20040;-59
2023/05/03 09:43:30;;;;;;;4.18;1.60;;;9.60;99.90;;;;;;5049779;28;20124;-59
2023/05/03 09:46:15;;;;;;;4.80;1.63;;;9.70;99.90;;;;;;5033498;28;20141;-59
2023/05/03 09:48:41;;;;;;;5.03;1.88;;;9.80;99.90;;;;;;5049094;28;20052;-59
2023/05/03 09:51:08;;;;;;;4.78;1.58;;;9.80;99.90;;;;;;5049928;28;20509;-59
2023/05/03 09:53:35;;;;;;;5.22;1.70;;;9.80;99.90;;;;;;5014779;28;20508;-59
2023/05/03 09:56:12;;;;;;;4.55;1.60;;;9.90;99.90;;;;;;5050929;28;20080;-59
2023/05/03 09:58:38;;;;;;;4.50;1.73;;;9.90;99.90;;;;;;5049328;28;20045;-59
2023/05/03 10:01:05;;;;;;;6.38;1.70;;;9.90;99.90;;;;;;5050119;28;20044;-59
2023/05/03 10:03:36;;;;;;;5.97;2.92;;;10.00;99.90;;;;;;5052518;28;20098;-59
2023/05/03 10:06:05;;;;;;;8.02;4.50;;;10.00;99.90;;;;;;5052516;28;20060;-60
2023/05/03 10:08:39;;;;;;;10.82;3.92;;;10.10;99.90;;;;;;5052475;28;20048;-59
2023/05/03 10:11:07;;;;;;;5.50;2.67;;;10.20;99.90;;;;;;5053017;28;20083;-61
2023/05/03 10:13:34;;;;;;;7.47;3.05;;;10.10;99.90;;;;;;5049354;28;20402;-61
2023/05/03 10:16:08;;;;;;;10.88;4.20;;;10.10;99.90;;;;;;5040623;28;20458;-60
2023/05/03 10:18:39;;;;;;;7.03;1.83;;;10.20;99.90;;;;;;5054328;28;20374;-61
2023/05/03 10:21:13;;;;;;;6.18;2.63;;;10.20;99.90;;;;;;5052266;28;20076;-60
2023/05/03 10:24:12;;;;;;;7.07;3.17;;;10.30;99.90;;;;;;5068269;28;20068;-60
2023/05/03 10:26:44;;;;;;;4.28;1.40;;;10.30;99.90;;;;;;5051935;28;20402;-60
2023/05/03 10:29:34;;;;;;;9.65;1.67;;;10.30;99.90;;;;;;5035402;28;20039;-60
2023/05/03 10:32:04;;;;;;;5.63;1.55;;;10.40;99.90;;;;;;5069295;28;20040;-60
2023/05/03 10:34:34;;;;;;;6.43;1.73;;;10.40;99.90;;;;;;5068450;28;20048;-60
2023/05/03 10:37:06;;;;;;;11.77;4.40;;;10.50;99.90;;;;;;5052852;28;20371;-60
2023/05/03 10:39:32;;;;;;;6.18;2.70;;;10.50;99.90;;;;;;5035283;28;20044;-60
2023/05/03 10:42:08;;;;;;;11.60;4.82;;;10.60;99.90;;;;;;5053603;28;20041;-60
2023/05/03 10:44:37;;;;;;;13.60;5.68;;;10.60;99.90;;;;;;5050675;28;20118;-60
2023/05/03 10:47:13;;;;;;;4.30;1.50;;;10.70;99.90;;;;;;5052104;28;20041;-60
2023/05/03 10:49:39;;;;;;;2.40;1.15;;;10.80;99.90;;;;;;5050099;28;20037;-59
2023/05/03 10:52:37;;;;;;;3.08;1.17;;;10.80;99.90;;;;;;5049534;28;20347;-59
2023/05/03 10:55:08;;;;;;;4.40;2.00;;;10.90;99.90;;;;;;5052138;28;20095;-60
2023/05/03 10:57:36;;;;;;;5.03;1.92;;;10.90;99.90;;;;;;5050728;28;20056;-59
2023/05/03 11:00:07;;;;;;;3.38;1.42;;;10.90;99.90;;;;;;5051983;28;20037;-59
2023/05/03 11:02:38;;;;;;;3.40;1.20;;;11.00;99.90;;;;;;5052904;28;20041;-59
2023/05/03 11:05:10;;;;;;;4.60;1.30;;;11.00;99.90;;;;;;5052433;28;20036;-58
2023/05/03 11:07:36;;;;;;;2.95;1.30;;;11.10;99.90;;;;;;5051290;28;20119;-58
2023/05/03 11:10:16;;;;;;;5.90;1.73;;;11.10;99.90;;;;;;5051737;28;20119;-59
2023/05/03 11:12:42;;;;;;;5.70;1.70;;;11.20;99.90;;;;;;5050724;28;20049;-58
2023/05/03 11:15:10;;;;;;;8.25;2.20;;;11.20;99.90;;;;;;5051765;28;20134;-58
2023/05/03 11:17:37;;;;;;;14.48;5.45;;;11.20;99.90;;;;;;5052456;28;20048;-59
2023/05/03 11:20:07;;;;;;;6.63;2.20;;;11.20;99.90;;;;;;5050728;28;20045;-59
2023/05/03 11:22:34;;;;;;;3.72;1.33;;;11.20;99.90;;;;;;5050872;28;20048;-59
2023/05/03 11:24:59;;;;;;;6.07;1.65;;;11.30;99.90;;;;;;5051469;28;20098;-59
2023/05/03 11:27:25;;;;;;;6.25;1.60;;;11.40;99.90;;;;;;5050290;28;20037;-59
2023/05/03 11:29:57;;;;;;;4.85;1.58;;;11.50;99.90;;;;;;5052813;28;20452;-58
2023/05/03 11:32:26;;;;;;;4.47;1.63;;;11.50;99.90;;;;;;5049724;28;20045;-58
2023/05/03 11:34:51;;;;;;;7.60;2.28;;;11.50;99.60;;;;;;5051420;28;20508;-58
2023/05/03 11:37:17;;;;;;;4.80;2.17;;;11.50;99.70;;;;;;5051191;28;20044;-59
2023/05/03 11:39:43;;;;;;;9.65;2.55;;;11.50;99.80;;;;;;5050009;28;20545;-58
2023/05/03 11:42:08;;;;;;;4.45;2.17;;;11.50;99.70;;;;;;5051422;28;20547;-58
2023/05/03 11:44:36;;;;;;;4.22;1.58;;;11.50;99.90;;;;;;5050697;28;20460;-59
2023/05/03 11:47:02;;;;;;;4.05;1.75;;;11.50;99.90;;;;;;5050321;28;20051;-58
2023/05/03 11:49:28;;;;;;;3.15;1.23;;;11.40;99.90;;;;;;5050594;28;20115;-58
2023/05/03 11:51:54;;;;;;;9.90;5.07;;;11.40;99.50;;;;;;5052443;28;20079;-59
2023/05/03 11:54:21;;;;;;;4.55;1.88;;;11.40;99.40;;;;;;5051231;28;20048;-59
2023/05/03 11:56:47;;;;;;;21.30;12.88;;;11.50;99.60;;;;;;5051159;28;20477;-59
2023/05/03 11:59:12;;;;;;;6.28;2.80;;;11.60;99.80;;;;;;5051025;28;20047;-59
2023/05/03 12:01:38;;;;;;;4.07;1.38;;;11.80;99.80;;;;;;5050772;28;20503;-59
2023/05/03 12:04:04;;;;;;;4.45;1.70;;;12.00;99.40;;;;;;5052139;28;20041;-59
2023/05/03 12:06:32;;;;;;;3.40;1.60;;;12.00;98.70;;;;;;5050207;28;20037;-59
2023/05/03 12:08:58;;;;;;;3.67;1.40;;;12.00;98.50;;;;;;5050287;28;20052;-59
2023/05/03 12:11:24;;;;;;;4.68;1.50;;;11.80;98.20;;;;;;5050113;28;20060;-59
2023/05/03 12:14:01;;;;;;;6.97;2.90;;;11.80;98.30;;;;;;5050823;28;20045;-59
2023/05/03 12:16:27;;;;;;;5.15;2.10;;;11.80;98.50;;;;;;5050802;28;20052;-59
2023/05/03 12:19:01;;;;;;;9.05;2.75;;;11.90;98.80;;;;;;5051017;28;20393;-59
2023/05/03 12:21:43;;;;;;;7.95;4.13;;;12.20;98.70;;;;;;5049435;28;20041;-59
2023/05/03 12:24:09;;;;;;;11.07;3.65;;;12.30;98.00;;;;;;5050889;28;20095;-59
2023/05/03 12:26:34;;;;;;;7.47;3.05;;;12.30;98.00;;;;;;5050538;28;20045;-59
2023/05/03 12:29:00;;;;;;;8.63;3.92;;;12.20;97.80;;;;;;5050048;28;20386;-58
2023/05/03 12:31:27;;;;;;;6.30;2.28;;;12.20;97.60;;;;;;5051418;28;20485;-59
2023/05/03 12:33:52;;;;;;;11.23;4.90;;;12.30;97.60;;;;;;5050781;28;20045;-59
2023/05/03 12:36:18;;;;;;;11.15;2.75;;;12.30;97.30;;;;;;5049484;28;20457;-59
2023/05/03 12:38:44;;;;;;;6.03;2.55;;;12.50;97.10;;;;;;5050744;28;20045;-59
2023/05/03 12:41:10;;;;;;;6.22;2.63;;;12.50;96.70;;;;;;5050544;28;20079;-59
2023/05/03 12:43:36;;;;;;;5.78;1.50;;;12.70;96.60;;;;;;5053009;28;20045;-59
2023/05/03 12:46:02;;;;;;;3.88;1.40;;;12.80;96.40;;;;;;5055916;28;20116;-58
2023/05/03 12:48:29;;;;;;;4.35;1.63;;;12.70;95.90;;;;;;5054159;28;20064;-58
2023/05/03 12:50:55;;;;;;;4.57;1.50;;;12.50;96.10;;;;;;5053872;28;20044;-58
2023/05/03 12:53:21;;;;;;;5.97;1.77;;;12.30;96.30;;;;;;5053747;28;20405;-59
2023/05/03 12:55:47;;;;;;;5.70;1.42;;;12.10;96.80;;;;;;5054460;28;20037;-59
2023/05/03 12:58:13;;;;;;;4.68;1.52;;;12.10;96.60;;;;;;5053423;28;20045;-58